Pagrindinis puslapis
METAR-TAF:

METAR-TAF

Oro uostai :

Port Isabel-Cameron County Airport

Port Isabel, Teksasas, Jungtinės Amerikos Valstijos

platuma: 26-09-33N, ilguma: 097-20-15W, Aukštis: 5 m

Dabartinis oras

Ataskaita buvo paskelbta 1 valandą ir 12 minutes, ne 02:53 UTC
Vėjas 11 kt iš Pietryčių su gūsio iki 18 kt
Temperatūra 26°C
Drėgmė 89%
Slėgis 1012 hPa
Matomumas: 16.1 km
Su prošvaistėmis ne aukštis 1000 ft
Apsiniaukę ne aukštis 1700 ft

METAR: KPIL 170253Z AUTO 14011G18KT 10SM BKN010 OVC017 26/24 A2989 RMK AO2 CIG 008V013 SLP121 T02610239 51011

Laikas: 23:05 (04:05 UTC)


TAF: trūkstamas

Orai ataskaitas ir orų prognozės (METAR, TAF).

turimą stotys yra geltonos ir raudonos taškus žemėlapyje.

Perkelti pele per norėdami pamatyti stoties vardą.

Tada spustelėkite, norėdami matyti oro stebėjimo ir prognozės.

Norėdami pakeisti žemėlapį: spustelėkite ant žalios mygtukų su juodo kryžiaus žemyn,; žalią mygtuką su brūkšneliu, jei norite nutolinti; arba žalių rodyklių gretimoms žemėlapius.


METAR-TAF: